• Join FlightAware (Why Join?)
  • Login
  • US Flag 
10:17PM EDT


 

Airport Tracker/Info


-or-


 

Live Flight TrackerFlight Track Log ✈ DAL268 ✈ 07-Oct-2013 ✈ KSFO - KJFK

Flight Track Log - Related Links

Times and Time Zones

All times are in EDT time to prevent confusion due to time zone crossing. See the DAL268 flight status page for this flight to view local times or setup timezone preferences in your user account.

Time Position Orientation Groundspeed Altitude Reporting Facility
EDT Latitude Longitude Course Direction KTS MPH feet Rate Location/Type
02:31PM 37.6060 -122.3830 180° South  Level FlightAware
02:34PM 37.8112 -122.1721 38° Northeast  Level FlightAware Approximate
02:35PM 37.9067 -122.0767 38° Northeast  Level FlightAware Approximate
02:36PM 37.9922 -121.9756 35° Northeast  Level FlightAware Approximate
02:37PM 38.0923 -121.8881 35° Northeast  Level FlightAware Approximate
02:39PM 37.6099 -122.3790 27° Northeast 86 99  Level FlightAware ADS-B
02:39PM 37.6187 -122.3730 28° Northeast 155 178 240 Level FlightAware ADS-B
02:39PM 37.6231 -122.3700 28° Northeast 168 193 100 2,220 Climbing FlightAware ADS-B
02:39PM 37.6292 -122.3660 27° Northeast 158 182 600 2,820 Climbing FlightAware ADS-B
02:39PM 37.6341 -122.3620 33° Northeast 157 181 900 2,100 Climbing FlightAware ADS-B
02:39PM 37.6373 -122.3580 45° Northeast 161 185 1,100 1,980 Climbing FlightAware ADS-B
02:40PM 37.6434 -122.3490 49° Northeast 172 198 1,500 1,620 Climbing FlightAware ADS-B
02:40PM 37.6490 -122.3410 49° Northeast 186 214 1,700 1,380 Climbing FlightAware ADS-B
02:40PM 37.6582 -122.3280 48° Northeast 206 237 2,100 1,440 Climbing FlightAware ADS-B
02:40PM 37.6670 -122.3150 49° Northeast 225 259 2,400 1,560 Climbing FlightAware ADS-B
02:41PM 37.6765 -122.3010 49° Northeast 243 280 2,800 1,860 Climbing FlightAware ADS-B
02:41PM 37.6884 -122.2840 49° Northeast 259 298 3,300 2,520 Climbing FlightAware ADS-B
02:41PM 37.7019 -122.2650 48° Northeast 262 302 4,200 2,820 Climbing FlightAware ADS-B
02:41PM 37.7161 -122.2440 49° Northeast 269 310 4,900 2,880 Climbing FlightAware ADS-B
02:42PM 37.7298 -122.2250 48° Northeast 274 315 5,800 3,240 Climbing FlightAware ADS-B
02:42PM 37.7438 -122.2050 48° Northeast 275 316 6,700 2,700 Climbing FlightAware ADS-B
02:42PM 37.7591 -122.1830 49° Northeast 283 326 7,400 2,700 Climbing FlightAware ADS-B
02:43PM 37.7792 -122.1550 48° Northeast 288 331 8,500 2,760 Climbing FlightAware ADS-B
02:43PM 37.7937 -122.1340 49° Northeast 293 337 9,200 2,640 Climbing FlightAware ADS-B
02:43PM 37.8013 -122.1240 46° Northeast 297 342 9,600 3,000 Climbing FlightAware ADS-B
02:43PM 37.8053 -122.1190 45° Northeast 296 341 9,800 2,760 Climbing FlightAware ADS-B
02:43PM 37.8151 -122.1090 39° Northeast 298 343 10,200 1,500 Climbing FlightAware ADS-B
02:44PM 37.8517 -122.0770 35° Northeast 331 381 10,800 1,320 Climbing FlightAware ADS-B
02:44PM 37.8922 -122.0410 35° Northeast 359 413 11,600 1,380 Climbing FlightAware ADS-B
02:45PM 37.9356 -122.0040 34° Northeast 388 447 12,200 1,740 Climbing FlightAware ADS-B
02:46PM 38.0057 -121.9410 35° Northeast 394 453 13,900 2,100 Climbing FlightAware ADS-B
02:46PM 38.0700 -121.8830 35° Northeast 418 481 15,400 1,980 Climbing FlightAware
02:47PM 38.1270 -121.8330 35° Northeast 430 495 16,500 1,980 Climbing FlightAware
02:47PM 38.1850 -121.7820 35° Northeast 438 504 17,700 1,920 Climbing FlightAware
02:48PM 38.2440 -121.7300 35° Northeast 448 516 18,800 1,800 Climbing FlightAware
02:49PM 38.3110 -121.6700 35° Northeast 456 525 20,000 1,800 Climbing FlightAware
02:49PM 38.3670 -121.6200 35° Northeast 462 532 21,000 1,800 Climbing FlightAware
02:50PM 38.4330 -121.5570 37° Northeast 469 540 22,100 1,800 Climbing FlightAware
02:50PM 38.4820 -121.4880 48° Northeast 473 544 23,100 1,680 Climbing FlightAware
02:51PM 38.5300 -121.4050 54° Northeast 478 550 24,100 1,560 Climbing FlightAware
02:52PM 38.5710 -121.3340 54° Northeast 483 556 24,900 1,380 Climbing FlightAware
02:52PM 38.6190 -121.2510 53° Northeast 490 564 25,700 1,320 Climbing FlightAware
02:53PM 38.6630 -121.1750 53° Northeast 495 570 26,400 1,200 Climbing FlightAware
02:53PM 38.7120 -121.0890 54° Northeast 502 578 27,100 1,140 Climbing FlightAware
02:54PM 38.7680 -120.9930 53° Northeast 505 581 27,900 1,200 Climbing FlightAware
02:54PM 38.8120 -120.9160 54° Northeast 507 583 28,600 1,500 Climbing FlightAware
02:55PM 38.8620 -120.8300 53° Northeast 504 580 29,600 1,620 Climbing FlightAware
02:56PM 38.9130 -120.7430 53° Northeast 501 577 30,600 1,620 Climbing FlightAware
02:56PM 38.9577 -120.6649 54° Northeast 497 572 31,500 1,380 Climbing FlightAware ADS-B (KAHC)
02:57PM 39.0050 -120.5831 53° Northeast 496 571 32,200 1,260 Climbing FlightAware ADS-B (KAHC)
02:57PM 39.0478 -120.5085 53° Northeast 495 570 32,900 1,260 Climbing FlightAware ADS-B (KAHC)
02:58PM 39.1038 -120.4108 54° Northeast 493 567 33,800 1,200 Climbing FlightAware ADS-B (KAHC)
02:58PM 39.1451 -120.3387 54° Northeast 491 565 34,400 960 Climbing FlightAware ADS-B (KAHC)
02:59PM 39.2006 -120.2414 54° Northeast 494 568 35,000 480 Climbing FlightAware ADS-B (KAHC)
03:00PM 39.2440 -120.1650 54° Northeast 494 568 35,000  Level FlightAware
03:00PM 39.2548 -120.1462 53° Northeast 495 570 35,000  Level FlightAware ADS-B (KAHC)
03:00PM 39.2969 -120.0721 54° Northeast 498 573 35,000  Level FlightAware ADS-B (KAHC)
03:01PM 39.3392 -119.9975 54° Northeast 500 575 35,000  Level FlightAware ADS-B (KAHC)
03:01PM 39.3860 -119.9150 54° Northeast 499 574 35,000  Level FlightAware
03:02PM 39.3959 -119.8970 55° Northeast 499 574 35,000  Level FlightAware ADS-B (KAHC)
03:02PM 39.4494 -119.8019 54° Northeast 498 573 35,000  Level FlightAware ADS-B (KAHC)
03:03PM 39.5086 -119.6959 54° Northeast 499 574 35,000  Level FlightAware ADS-B (KAHC)
03:04PM 39.5572 -119.5905 59° Northeast 499 574 35,000  Level FlightAware ADS-B (KAHC)
03:04PM 39.5960 -119.4935 63° Northeast 500 575 35,000  Level FlightAware ADS-B (KAHC)
03:05PM 39.6275 -119.4133 63° Northeast 500 575 35,000  Level FlightAware ADS-B (KAHC)
03:05PM 39.6586 -119.3341 63° Northeast 500 575 35,000  Level FlightAware ADS-B (KAHC)
03:06PM 39.6898 -119.2541 63° Northeast 500 575 35,000  Level FlightAware ADS-B (KAHC)
03:06PM 39.7318 -119.1468 63° Northeast 500 575 35,000  Level FlightAware ADS-B (KAHC)
03:07PM 39.7694 -119.0504 63° Northeast 500 575 35,000  Level FlightAware ADS-B (KAHC)
03:08PM 39.8006 -118.9700 63° Northeast 500 575 35,000  Level FlightAware ADS-B (KAHC)
03:08PM 39.8344 -118.8830 63° Northeast 500 575 35,000  Level FlightAware ADS-B (KAHC)
03:09PM 39.8751 -118.7780 63° Northeast 500 575 35,000  Level FlightAware ADS-B (KAHC)
03:09PM 39.9212 -118.6583 63° Northeast 501 577 35,000  Level FlightAware ADS-B (KAHC)
03:10PM 39.9521 -118.5777 63° Northeast 501 577 35,000  Level FlightAware ADS-B (KAHC)
03:11PM 39.9938 -118.4686 63° Northeast 501 577 35,000  Level FlightAware ADS-B (KAHC)
03:11PM 40.0430 -118.3390 64° Northeast 501 577 35,000  Level FlightAware
03:12PM 40.0820 -118.2350 64° Northeast 503 579 35,000  Level FlightAware
03:13PM 40.1160 -118.1460 63° Northeast 504 580 35,000  Level FlightAware
03:13PM 40.1470 -118.0670 63° Northeast 504 580 35,000  Level FlightAware
03:14PM 40.1790 -117.9840 63° Northeast 504 580 35,000  Level FlightAware
03:14PM 40.2120 -117.9000 63° Northeast 504 580 35,000  Level FlightAware
03:15PM 40.2440 -117.8170 63° Northeast 504 580 35,000  Level FlightAware
03:16PM 40.2770 -117.7310 63° Northeast 504 580 35,000  Level FlightAware
03:16PM 40.3100 -117.6480 62° Northeast 504 580 35,000  Level FlightAware
03:17PM 40.3420 -117.5650 63° Northeast 504 580 35,000  Level FlightAware
03:17PM 40.3760 -117.4790 63° Northeast 504 580 35,000  Level FlightAware
03:18PM 40.4080 -117.3950 63° Northeast 504 580 35,000  Level FlightAware
03:19PM 40.4410 -117.3100 63° Northeast 504 580 35,000  Level FlightAware
03:19PM 40.4740 -117.2240 63° Northeast 504 580 35,000  Level FlightAware
03:20PM 40.5070 -117.1400 63° Northeast 504 580 35,000  Level FlightAware
03:20PM 40.5390 -117.0560 63° Northeast 504 580 35,000  Level FlightAware
03:21PM 40.5730 -116.9680 63° Northeast 504 580 35,000  Level FlightAware
03:22PM 40.6070 -116.8820 62° Northeast 504 580 35,000  Level FlightAware
03:22PM 40.6370 -116.8030 63° Northeast 504 580 35,000  Level FlightAware
03:25PM 40.8153 -116.0170 73° East 510 587 35,000  Level FlightAware ADS-B
03:26PM 40.8390 -115.9270 71° East 512 589 35,000  Level FlightAware ADS-B
03:26PM 40.8630 -115.8350 71° East 512 589 35,000  Level FlightAware ADS-B
03:28PM 40.9366 -115.5520 71° East 512 589 35,000  Level FlightAware ADS-B
03:29PM 41.0062 -115.2810 71° East 512 589 35,000  Level FlightAware ADS-B
03:30PM 41.0292 -115.1910 71° East 512 589 35,000  Level FlightAware ADS-B
03:30PM 41.0529 -115.0970 71° East 512 589 35,000  Level FlightAware ADS-B
03:31PM 41.0777 -114.9990 71° East 513 590 35,000  Level FlightAware ADS-B
03:32PM 41.1102 -114.8700 71° East 513 590 35,000  Level FlightAware ADS-B
03:32PM 41.1411 -114.7460 72° East 515 593 35,000  Level FlightAware ADS-B
03:33PM 41.1636 -114.6560 72° East 515 593 35,000  Level FlightAware ADS-B
03:33PM 41.1860 -114.5660 72° East 515 593 35,000  Level FlightAware ADS-B
03:34PM 41.2124 -114.4590 72° East 515 593 35,000  Level FlightAware ADS-B
03:35PM 41.2346 -114.3690 72° East 514 592 35,000  Level FlightAware ADS-B
03:35PM 41.2569 -114.2780 72° East 515 593 35,000  Level FlightAware ADS-B
03:36PM 41.2789 -114.1880 72° East 516 594 35,000  Level FlightAware ADS-B
03:36PM 41.3011 -114.0970 72° East 516 594 35,000  Level FlightAware ADS-B
03:37PM 41.3238 -114.0030 72° East 516 594 35,000  Level FlightAware ADS-B
03:37PM 41.3465 -113.9080 72° East 516 594 35,000  Level FlightAware ADS-B
03:37PM 41.3539 -113.8743 74° East 515 593 35,000  Level FlightAware ADS-B (KPVU)
03:37PM 41.3624 -113.8300 76° East 514 592 35,000  Level FlightAware ADS-B
03:38PM 41.3715 -113.7723 78° East 513 590 35,000  Level FlightAware ADS-B (KPVU)
03:38PM 41.3766 -113.7360 79° East 512 589 35,000  Level FlightAware ADS-B
03:38PM 41.3888 -113.6430 80° East 512 589 35,000  Level FlightAware ADS-B
03:39PM 41.3896 -113.6371 80° East 513 590 35,000  Level FlightAware ADS-B (KPVU)
03:39PM 41.4047 -113.5180 80° East 513 590 35,000  Level FlightAware ADS-B
03:39PM 41.4068 -113.5008 81° East 513 590 35,000  Level FlightAware ADS-B (KPVU)
03:40PM 41.4165 -113.4240 80° East 513 590 35,000  Level FlightAware ADS-B
03:40PM 41.4227 -113.3746 80° East 513 590 35,000  Level FlightAware ADS-B (KPVU)
03:40PM 41.4283 -113.3300 81° East 513 590 35,000  Level FlightAware ADS-B
03:41PM 41.4381 -113.2519 80° East 513 590 35,000  Level FlightAware ADS-B (KPVU)
03:41PM 41.4483 -113.1700 81° East 513 590 35,000  Level FlightAware ADS-B
03:41PM 41.4553 -113.1127 81° East 514 592 35,000  Level FlightAware ADS-B (KPVU)
03:42PM 41.4602 -113.0730 81° East 514 592 35,000  Level FlightAware ADS-B
03:42PM 41.4668 -113.0192 81° East 514 592 35,000  Level FlightAware ADS-B (KPVU)
03:42PM 41.4763 -112.9420 81° East 514 592 35,000  Level FlightAware ADS-B
03:42PM 41.4800 -112.9113 81° East 514 592 35,000  Level FlightAware ADS-B (KPVU)
03:43PM 41.4886 -112.8410 81° East 515 593 35,000  Level FlightAware ADS-B
03:43PM 41.4916 -112.8164 81° East 515 593 35,000  Level FlightAware ADS-B (KPVU)
03:43PM 41.5027 -112.7240 81° East 514 592 35,000  Level FlightAware ADS-B
03:43PM 41.5038 -112.7149 81° East 514 592 35,000  Level FlightAware ADS-B (KPVU)
03:44PM 41.5146 -112.6242 81° East 515 593 35,000  Level FlightAware ADS-B (KPVU)
03:45PM 41.5275 -112.5160 81° East 515 593 35,000  Level FlightAware ADS-B
03:45PM 41.5384 -112.4210 81° East 515 593 35,000  Level FlightAware ADS-B
03:45PM 41.5391 -112.4140 83° East 515 593 35,000  Level FlightAware ADS-B (KPVU)
03:46PM 41.5492 -112.3162 82° East 515 593 35,000  Level FlightAware ADS-B (KPVU)
03:46PM 41.5526 -112.2840 82° East 515 593 35,000  Level FlightAware ADS-B
03:46PM 41.5597 -112.2145 82° East 515 593 35,000  Level FlightAware ADS-B (KPVU)
03:46PM 41.5643 -112.1710 82° East 515 593 35,000  Level FlightAware ADS-B
03:47PM 41.5697 -112.1181 82° East 515 593 35,000  Level FlightAware ADS-B (KPVU)
03:47PM 41.5741 -112.0750 82° East 515 593 35,000  Level FlightAware ADS-B
03:47PM 41.5794 -112.0231 82° East 514 592 35,000  Level FlightAware ADS-B (KPVU)
03:48PM 41.5873 -111.9470 82° East 514 592 35,000  Level FlightAware ADS-B
03:48PM 41.5889 -111.9303 83° East 514 592 35,000  Level FlightAware ADS-B (KPVU)
03:48PM 41.5982 -111.8390 82° East 514 592 35,000  Level FlightAware ADS-B
03:48PM 41.5992 -111.8299 82° East 514 592 35,000  Level FlightAware ADS-B (KPVU)
03:49PM 41.6087 -111.7350 82° East 513 590 35,000  Level FlightAware ADS-B
03:49PM 41.6134 -111.6780 84° East 512 589 35,000  Level FlightAware ADS-B
03:49PM 41.6126 -111.6320 91° East 509 586 35,000  Level FlightAware ADS-B
03:50PM 41.6036 -111.5360 97° East 508 585 35,000  Level FlightAware ADS-B
03:50PM 41.5934 -111.4410 98° East 508 585 35,000  Level FlightAware ADS-B
03:51PM 41.5850 -111.3450 97° East 508 585 35,000  Level FlightAware ADS-B
03:51PM 41.5772 -111.2520 96° East 507 583 35,000  Level FlightAware ADS-B
03:52PM 41.5693 -111.1590 96° East 507 583 35,000  Level FlightAware ADS-B
03:52PM 41.5605 -111.0570 97° East 507 583 35,000  Level FlightAware ADS-B
03:53PM 41.5520 -110.9620 97° East 508 585 35,000  Level FlightAware ADS-B
03:53PM 41.5433 -110.8680 97° East 507 583 35,000  Level FlightAware ADS-B
03:54PM 41.5345 -110.7720 97° East 506 582 35,000  Level FlightAware ADS-B
03:55PM 41.5340 -110.6420 90° East 510 587 35,000  Level FlightAware
03:55PM 41.5460 -110.5370 81° East 512 589 35,000  Level FlightAware
03:56PM 41.5600 -110.4250 80° East 511 588 35,000  Level FlightAware
03:56PM 41.5750 -110.3130 80° East 510 587 35,000  Level FlightAware
03:57PM 41.5880 -110.2060 81° East 508 585 35,000  Level FlightAware
03:57PM 41.6010 -110.1070 80° East 507 583 35,000  Level FlightAware
03:58PM 41.6140 -110.0050 80° East 507 583 35,000  Level FlightAware
03:59PM 41.6270 -109.9080 80° East 507 583 35,000  Level FlightAware
03:59PM 41.6400 -109.8130 80° East 507 583 35,000  Level FlightAware
04:00PM 41.6520 -109.7190 80° East 507 583 35,000  Level FlightAware
04:00PM 41.6640 -109.6270 80° East 507 583 35,000  Level FlightAware
04:01PM 41.6860 -109.4300 81° East 504 580 35,000  Level FlightAware
04:02PM 41.6990 -109.3180 81° East 504 580 35,000  Level FlightAware
04:02PM 41.7110 -109.2220 80° East 503 579 35,000  Level FlightAware
04:03PM 41.7230 -109.1180 81° East 503 579 35,000  Level FlightAware
04:04PM 41.7390 -108.9960 80° East 502 578 35,000  Level FlightAware
04:04PM 41.7520 -108.8720 82° East 501 577 35,000  Level FlightAware
04:05PM 41.7650 -108.7620 81° East 499 574 35,000  Level FlightAware
04:05PM 41.7760 -108.6630 81° East 499 574 35,000  Level FlightAware
04:06PM 41.7880 -108.5620 81° East 499 574 35,000  Level FlightAware
04:06PM 41.8020 -108.4430 81° East 499 574 35,000 480 Level FlightAware
04:07PM 41.8130 -108.3430 82° East 498 573 35,600 1,200 Climbing FlightAware
04:08PM 41.8230 -108.2480 82° East 492 566 36,300 1,200 Climbing FlightAware
04:08PM 41.8360 -108.1370 81° East 490 564 37,000 540 Climbing FlightAware
04:09PM 41.8480 -108.0260 82° East 495 570 37,000  Level FlightAware
04:09PM 41.8600 -107.9130 82° East 498 573 37,000  Level FlightAware
04:10PM 41.8710 -107.8160 81° East 503 579 37,000  Level FlightAware
04:11PM 41.8830 -107.7060 82° East 503 579 37,000  Level FlightAware
04:11PM 41.8970 -107.5860 81° East 503 579 37,000  Level FlightAware
04:12PM 41.9080 -107.4910 81° East 503 579 37,000  Level FlightAware
04:13PM 41.9190 -107.3970 81° East 503 579 37,000  Level FlightAware
04:13PM 41.9310 -107.3020 80° East 503 579 37,000  Level FlightAware
04:14PM 41.9420 -107.2080 81° East 503 579 37,000  Level FlightAware
04:14PM 41.9530 -107.1100 81° East 503 579 37,000  Level FlightAware
04:15PM 41.9650 -107.0130 81° East 503 579 37,000  Level FlightAware
04:16PM 41.9760 -106.9190 81° East 503 579 37,000  Level FlightAware
04:16PM 41.9870 -106.8240 81° East 503 579 37,000  Level FlightAware
04:17PM 41.9980 -106.7290 81° East 503 579 37,000  Level FlightAware
04:17PM 42.0090 -106.4470 87° East 489 563 37,000  Level FlightAware
04:18PM 42.0220 -106.3040 83° East 489 563 37,000  Level FlightAware
04:19PM 42.0310 -106.2060 83° East 490 564 37,000  Level FlightAware
04:19PM 42.0420 -106.0880 83° East 490 564 37,000  Level FlightAware
04:20PM 42.0530 -105.9860 82° East 490 564 37,000  Level FlightAware
04:21PM 42.0630 -105.8630 84° East 490 564 37,000  Level FlightAware
04:21PM 42.0720 -105.7590 83° East 491 565 37,000  Level FlightAware
04:22PM 42.0800 -105.6660 83° East 491 565 37,000  Level FlightAware
04:22PM 42.0880 -105.5790 83° East 491 565 37,000  Level FlightAware
04:23PM 42.1010 -105.4280 83° East 490 564 37,000  Level FlightAware
04:23PM 42.1080 -105.3360 84° East 491 565 37,000  Level FlightAware
04:24PM 42.1170 -105.2320 83° East 492 566 37,000  Level FlightAware
04:25PM 42.1240 -105.1450 84° East 492 566 37,000  Level FlightAware
04:25PM 42.1330 -105.0460 83° East 492 566 37,000  Level FlightAware
04:26PM 42.1450 -104.9220 83° East 492 566 37,000  Level FlightAware
04:27PM 42.1540 -104.8180 83° East 492 566 37,000  Level FlightAware
04:27PM 42.1630 -104.7230 83° East 492 566 37,000  Level FlightAware
04:28PM 42.1710 -104.5570 86° East 492 566 37,000  Level FlightAware
04:28PM 42.1790 -104.4530 84° East 492 566 37,000  Level FlightAware
04:29PM 42.1870 -104.3540 84° East 492 566 37,000  Level FlightAware
04:30PM 42.1940 -104.2610 84° East 492 566 37,000  Level FlightAware
04:30PM 42.2040 -104.1420 83° East 492 566 37,000  Level FlightAware
04:31PM 42.2110 -104.0450 84° East 492 566 37,000  Level FlightAware
04:32PM 42.2180 -103.9490 84° East 492 566 37,000  Level FlightAware
04:32PM 42.2260 -103.8560 83° East 492 566 37,000  Level FlightAware
04:33PM 42.2330 -103.7620 84° East 492 566 37,000  Level FlightAware
04:33PM 42.2400 -103.6690 84° East 492 566 37,000  Level FlightAware
04:34PM 42.2480 -103.5720 84° East 492 566 37,000  Level FlightAware
04:35PM 42.2550 -103.4810 84° East 492 566 37,000  Level FlightAware
04:35PM 42.2620 -103.3880 84° East 492 566 37,000  Level FlightAware
04:36PM 42.2690 -103.2920 84° East 492 566 37,000  Level FlightAware
04:36PM 42.2770 -103.1980 83° East 492 566 37,000  Level FlightAware
04:37PM 42.2840 -103.1040 84° East 492 566 37,000  Level FlightAware
04:38PM 42.2910 -103.0080 84° East 492 566 37,000  Level FlightAware
04:39PM 42.3100 -102.5139 84° East 484 557 37,000  Level Denver Center
04:40PM 42.3214 -102.3111 86° East 485 558 37,000  Level Denver Center
04:41PM 42.3314 -102.1367 86° East 486 559 37,000  Level Denver Center
04:42PM 42.3439 -101.9333 85° East 487 560 37,000  Level Denver Center
04:43PM 42.3528 -101.7456 86° East 488 562 37,000  Level Denver Center
04:44PM 42.3617 -101.5711 86° East 487 560 37,000  Level Denver Center
04:45PM 42.3714 -101.3678 86° East 486 559 37,000  Level Denver Center
04:46PM 42.3806 -101.1925 86° East 486 559 37,000  Level Denver Center
04:47PM 42.3889 -100.9925 87° East 478 550 37,000  Level Denver Center
04:48PM 42.3969 -100.8178 86° East 482 555 37,000  Level Denver Center
04:49PM 42.4039 -100.6431 87° East 485 558 37,000  Level Denver Center
04:55PM 42.4407 -99.6939 87° East 485 558 37,000  Level FlightAware ADS-B
04:56PM 42.4495 -99.4259 87° East 485 558 37,000  Level FlightAware ADS-B
04:57PM 42.4524 -99.3327 88° East 484 557 37,000  Level FlightAware ADS-B
04:58PM 42.4583 -99.1625 88° East 484 557 37,000  Level Minneapolis Center
04:59PM 42.4642 -98.9800 87° East 483 556 37,000  Level Minneapolis Center
05:05PM 42.5079 -97.9034 87° East 477 549 37,000  Level FlightAware ADS-B
05:07PM 42.5302 -97.3766 87° East 476 548 37,000  Level FlightAware ADS-B
05:09PM 42.5400 -97.1180 87° East 37,000  Level FlightAware
05:09PM 42.5414 -97.0847 87° East 477 549 37,000  Level FlightAware ADS-B
05:09PM 42.5434 -97.0309 87° East 478 550 37,000  Level FlightAware ADS-B
05:10PM 42.5470 -96.9160 88° East 477 549 37,000  Level FlightAware
05:10PM 42.5467 -96.9406 269° West 478 550 37,000  Level FlightAware ADS-B
05:11PM 42.5550 -96.7060 87° East 478 550 37,000  Level FlightAware
05:12PM 42.5513 -96.8092 267° West 479 551 37,000  Level FlightAware ADS-B
05:12PM 42.5603 -96.5406 87° East 479 551 37,000  Level FlightAware ADS-B
05:13PM 42.5650 -96.3840 88° East 479 551 37,000  Level FlightAware
05:13PM 42.5644 -96.4108 268° West 479 551 37,000  Level FlightAware ADS-B
05:14PM 42.5720 -96.1800 87° East 479 551 37,000  Level FlightAware
05:15PM 42.5750 -96.0730 88° East 480 552 37,000  Level FlightAware
05:15PM 42.5768 -95.9918 88° East 480 552 37,000  Level FlightAware ADS-B
05:16PM 42.5810 -95.8420 88° East 481 554 37,000  Level FlightAware
05:17PM 42.5840 -95.7090 88° East 482 555 37,000  Level FlightAware
05:17PM 42.5847 -95.6923 87° East 482 555 37,000  Level FlightAware ADS-B
05:18PM 42.5890 -95.5170 88° East 482 555 37,000  Level FlightAware
05:18PM 42.5920 -95.3930 88° East 483 556 37,000  Level FlightAware
05:19PM 42.5940 -95.2950 88° East 483 556 37,000  Level FlightAware
05:20PM 42.5960 -95.1890 88° East 483 556 37,000  Level FlightAware
05:20PM 42.5970 -95.1487 88° East 483 556 37,000  Level FlightAware ADS-B
05:20PM 42.5971 -95.1456 88° East 483 556 37,000  Level FlightAware ADS-B
05:21PM 42.6000 -94.9780 89° East 484 557 37,000  Level FlightAware
05:21PM 42.5982 -95.0915 269° West 484 557 37,000  Level FlightAware ADS-B
05:22PM 42.6040 -94.7600 89° East 484 557 37,000  Level FlightAware
05:23PM 42.6060 -94.6630 88° East 485 558 37,000  Level FlightAware
05:23PM 42.6065 -94.6225 89° East 485 558 37,000  Level FlightAware ADS-B
05:24PM 42.6087 -94.4698 89° East 486 559 37,000  Level FlightAware ADS-B
05:24PM 42.6110 -94.3320 89° East 486 559 37,000  Level FlightAware
05:24PM 42.6110 -94.3053 90° East 486 559 37,000  Level FlightAware ADS-B
05:25PM 42.6124 -94.1558 89° East 487 560 37,000  Level FlightAware ADS-B
05:26PM 42.6134 -94.0200 89° East 488 562 37,000  Level FlightAware ADS-B
05:27PM 42.6140 -93.9070 90° East 489 563 37,000  Level FlightAware
05:27PM 42.6145 -93.8604 89° East 488 562 37,000  Level FlightAware ADS-B
05:28PM 42.6152 -93.7472 89° East 489 563 37,000  Level FlightAware ADS-B
05:28PM 42.6160 -93.5930 90° East 490 564 37,000  Level FlightAware
05:29PM 42.6162 -93.5027 90° East 490 564 37,000  Level FlightAware ADS-B
05:30PM 42.6160 -93.3790 90° East 490 564 37,000  Level FlightAware
05:30PM 42.6170 -93.2670 89° East 490 564 37,000  Level FlightAware
05:31PM 42.6170 -93.1520 90° East 491 565 37,000  Level FlightAware
05:31PM 42.6170 -93.0400 90° East 492 566 37,000  Level FlightAware
05:32PM 42.6160 -92.9240 91° East 493 567 37,000  Level FlightAware
05:33PM 42.6160 -92.8140 90° East 494 568 37,000  Level FlightAware
05:33PM 42.6160 -92.7010 90° East 494 568 37,000  Level FlightAware
05:34PM 42.6150 -92.6030 91° East 494 568 37,000  Level FlightAware
05:34PM 42.6149 -92.5494 90° East 493 567 37,000  Level FlightAware ADS-B
05:35PM 42.6140 -92.3960 90° East 493 567 37,000  Level FlightAware
05:35PM 42.6138 -92.3515 90° East 494 568 37,000  Level FlightAware ADS-B
05:36PM 42.6120 -92.1600 91° East 495 570 37,000  Level FlightAware
05:36PM 42.6120 -92.1270 90° East 495 570 37,000  Level FlightAware ADS-B
05:37PM 42.6104 -91.9655 91° East 496 571 37,000  Level FlightAware ADS-B
05:38PM 42.6096 -91.8960 91° East 496 571 37,000  Level FlightAware ADS-B
05:38PM 42.6080 -91.7520 91° East 497 572 37,000  Level FlightAware
05:39PM 42.6074 -91.7136 91° East 497 572 37,000  Level FlightAware ADS-B
05:39PM 42.6054 -91.5578 91° East 497 572 37,000  Level FlightAware ADS-B
05:40PM 42.6030 -91.4250 91° East 495 570 37,000  Level FlightAware
05:40PM 42.6031 -91.4001 90° East 495 570 37,000  Level FlightAware ADS-B
05:41PM 42.6020 -91.3100 91° East 495 570 37,000  Level FlightAware
05:41PM 42.6000 -91.2150 92° East 494 568 37,000  Level FlightAware
05:41PM 42.5998 -91.1987 91° East 494 568 37,000  Level FlightAware ADS-B
05:42PM 42.5974 -91.0620 91° East 495 570 37,000  Level FlightAware ADS-B
05:43PM 42.5950 -90.9365 91° East 495 570 37,000  Level FlightAware ADS-B
05:44PM 42.5917 -90.7761 92° East 497 572 37,000  Level FlightAware ADS-B
05:44PM 42.5890 -90.6600 92° East 498 573 37,000  Level FlightAware
05:45PM 42.5870 -90.5580 91° East 498 573 37,000  Level FlightAware
05:45PM 42.5850 -90.4550 91° East 499 574 37,000  Level FlightAware
05:46PM 42.5820 -90.3420 92° East 499 574 37,000  Level FlightAware
05:46PM 42.5790 -90.2300 92° East 500 575 37,000  Level FlightAware
05:47PM 42.5760 -90.1210 92° East 501 577 37,000  Level FlightAware
05:48PM 42.5730 -90.0140 92° East 501 577 37,000  Level FlightAware
05:48PM 42.5700 -89.9100 92° East 502 578 37,000  Level FlightAware
05:49PM 42.5670 -89.7970 92° East 503 579 37,000  Level FlightAware
05:49PM 42.5640 -89.6790 92° East 504 580 37,000  Level FlightAware
05:50PM 42.5600 -89.5710 93° East 504 580 37,000  Level FlightAware
05:51PM 42.5570 -89.4630 92° East 504 580 37,000  Level FlightAware
05:51PM 42.5530 -89.3510 93° East 504 580 37,000  Level FlightAware
05:52PM 42.5490 -89.2390 93° East 504 580 37,000  Level FlightAware
05:52PM 42.5460 -89.1310 92° East 503 579 37,000  Level FlightAware
05:53PM 42.5410 -89.0150 93° East 502 578 37,000  Level FlightAware
05:54PM 42.5370 -88.9000 93° East 501 577 37,000  Level FlightAware
05:54PM 42.5340 -88.8060 92° East 501 577 37,000  Level FlightAware
05:55PM 42.5290 -88.6890 93° East 501 577 37,000  Level FlightAware
05:55PM 42.5250 -88.5810 93° East 500 575 37,000  Level FlightAware
05:56PM 42.5210 -88.4780 93° East 499 574 37,000  Level FlightAware
05:56PM 42.5160 -88.3680 93° East 497 572 37,000  Level FlightAware
05:57PM 42.5110 -88.2510 93° East 495 570 37,000  Level FlightAware
05:58PM 42.5060 -88.1420 94° East 495 570 37,000  Level FlightAware
05:58PM 42.5020 -88.0290 93° East 495 570 37,000  Level FlightAware
05:59PM 42.5000 -87.9320 92° East 494 568 37,000  Level FlightAware
05:59PM 42.5000 -87.8290 90° East 495 570 37,000  Level FlightAware
06:00PM 42.5000 -87.7230 90° East 496 571 37,000  Level FlightAware
06:00PM 42.4990 -87.6160 91° East 497 572 37,000  Level FlightAware
06:01PM 42.4990 -87.4770 90° East 498 573 37,000  Level FlightAware
06:02PM 42.4990 -87.3720 90° East 498 573 37,000  Level FlightAware
06:02PM 42.4980 -87.2660 91° East 499 574 37,000  Level FlightAware
06:03PM 42.4970 -87.1470 91° East 500 575 37,000  Level FlightAware
06:03PM 42.4960 -87.0530 91° East 501 577 37,000  Level FlightAware
06:04PM 42.4950 -86.9310 91° East 503 579 37,000  Level FlightAware
06:05PM 42.4940 -86.8200 91° East 504 580 37,000  Level FlightAware
06:05PM 42.4930 -86.7100 91° East 505 581 37,000  Level FlightAware
06:06PM 42.4920 -86.6020 91° East 506 582 37,000  Level FlightAware
06:06PM 42.4910 -86.4980 91° East 506 582 37,000  Level FlightAware
06:07PM 42.4890 -86.3870 91° East 507 583 37,000  Level FlightAware
06:08PM 42.4870 -86.2590 91° East 508 585 37,000  Level FlightAware
06:08PM 42.4860 -86.1560 91° East 508 585 37,000  Level FlightAware
06:09PM 42.4840 -86.0450 91° East 509 586 37,000  Level FlightAware
06:09PM 42.4820 -85.9320 91° East 510 587 37,000  Level FlightAware
06:10PM 42.4800 -85.8190 91° East 512 589 37,000  Level FlightAware
06:11PM 42.4780 -85.7080 91° East 514 592 37,000  Level FlightAware
06:11PM 42.4750 -85.5760 92° East 515 593 37,000  Level FlightAware
06:12PM 42.4730 -85.4590 91° East 518 596 37,000  Level FlightAware
06:12PM 42.4700 -85.3440 92° East 518 596 37,000  Level FlightAware
06:13PM 42.4670 -85.2340 92° East 518 596 37,000  Level FlightAware
06:14PM 42.4650 -85.1280 91° East 519 597 37,000  Level FlightAware
06:14PM 42.4620 -85.0230 92° East 519 597 37,000  Level FlightAware
06:15PM 42.4590 -84.8920 92° East 519 597 37,000  Level FlightAware
06:15PM 42.4560 -84.7880 92° East 519 597 37,000  Level FlightAware
06:16PM 42.4520 -84.6650 92° East 518 596 37,000  Level FlightAware
06:16PM 42.4490 -84.5550 92° East 518 596 37,000  Level FlightAware
06:17PM 42.4460 -84.4450 92° East 518 596 37,000  Level FlightAware
06:18PM 42.4420 -84.3340 93° East 517 595 37,000  Level FlightAware
06:18PM 42.4380 -84.2000 92° East 518 596 37,000  Level FlightAware
06:19PM 42.4340 -84.0750 92° East 518 596 37,000  Level FlightAware
06:20PM 42.4300 -83.9660 93° East 518 596 37,000  Level FlightAware
06:20PM 42.4270 -83.8630 92° East 517 595 37,000  Level FlightAware
06:21PM 42.4220 -83.7440 93° East 516 594 37,000  Level FlightAware
06:21PM 42.4180 -83.6300 93° East 515 593 37,000  Level FlightAware
06:22PM 42.4130 -83.5090 93° East 515 593 37,000  Level FlightAware
06:22PM 42.4090 -83.4050 93° East 514 592 37,000  Level FlightAware
06:23PM 42.4050 -83.2910 93° East 515 593 37,000  Level FlightAware
06:24PM 42.4000 -83.1780 93° East 514 592 37,000  Level FlightAware
06:24PM 42.3950 -83.0730 94° East 514 592 37,000  Level FlightAware
06:25PM 42.3900 -82.9570 93° East 513 590 37,000  Level FlightAware
06:25PM 42.3850 -82.8380 93° East 511 588 37,000  Level FlightAware
06:26PM 42.3810 -82.7370 93° East 511 588 37,000  Level FlightAware
06:26PM 42.3760 -82.6190 93° East 512 589 37,000  Level FlightAware
06:27PM 42.3710 -82.5040 93° East 512 589 37,000  Level FlightAware
06:28PM 42.3670 -82.3960 93° East 512 589 37,000  Level FlightAware
06:28PM 42.3630 -82.2990 93° East 511 588 37,000  Level FlightAware
06:29PM 42.3580 -82.1760 93° East 509 586 37,000  Level FlightAware
06:29PM 42.3530 -82.0660 93° East 508 585 37,000  Level FlightAware
06:30PM 42.3480 -81.9440 93° East 507 583 37,000  Level FlightAware
06:31PM 42.3440 -81.8450 93° East 506 582 37,000  Level FlightAware
06:31PM 42.3380 -81.7310 94° East 505 581 37,000  Level FlightAware
06:32PM 42.3330 -81.6150 93° East 504 580 37,000  Level FlightAware
06:32PM 42.3280 -81.5120 94° East 503 579 37,000  Level FlightAware
06:33PM 42.3230 -81.4020 93° East 503 579 37,000  Level FlightAware
06:34PM 42.3170 -81.2900 94° East 502 578 37,000  Level FlightAware
06:34PM 42.3120 -81.1890 94° East 502 578 37,000  Level FlightAware
06:35PM 42.3070 -81.0780 93° East 501 577 37,000  Level FlightAware
06:35PM 42.3010 -80.9630 94° East 501 577 37,000  Level FlightAware
06:36PM 42.2950 -80.8520 94° East 502 578 37,000  Level FlightAware
06:36PM 42.2880 -80.7370 95° East 503 579 37,000  Level FlightAware
06:37PM 42.2830 -80.6410 94° East 503 579 37,000  Level FlightAware
06:38PM 42.2770 -80.5330 94° East 504 580 37,000  Level FlightAware
06:38PM 42.2700 -80.4090 94° East 506 582 37,000  Level FlightAware
06:39PM 42.2650 -80.3130 94° East 507 583 37,000  Level FlightAware
06:39PM 42.2580 -80.2000 95° East 509 586 37,000  Level FlightAware
06:40PM 42.2510 -80.0880 95° East 509 586 37,000  Level FlightAware
06:41PM 42.2450 -79.9790 94° East 509 586 37,000  Level FlightAware
06:41PM 42.2370 -79.8630 95° East 511 588 37,000  Level FlightAware
06:42PM 42.2310 -79.7640 95° East 511 588 37,000  Level FlightAware
06:42PM 42.2230 -79.6410 95° East 511 588 37,000  Level FlightAware
06:43PM 42.2160 -79.5260 95° East 511 588 37,000  Level FlightAware
06:43PM 42.2080 -79.4130 95° East 513 590 37,000  Level FlightAware
06:44PM 42.2020 -79.3120 95° East 513 590 37,000  Level FlightAware
06:45PM 42.1930 -79.1930 96° East 514 592 37,000  Level FlightAware
06:45PM 42.1790 -79.0860 100° East 506 582 37,000  Level FlightAware
06:46PM 42.1540 -78.9790 107° East 503 579 37,000  Level FlightAware
06:46PM 42.1290 -78.8820 109° East 502 578 37,000  Level FlightAware
06:47PM 42.1010 -78.7720 109° East 501 577 37,000  Level FlightAware
06:48PM 42.0740 -78.6650 109° East 501 577 37,000  Level FlightAware
06:48PM 42.0490 -78.5640 108° East 500 575 37,000  Level FlightAware
06:49PM 42.0240 -78.4660 109° East 498 573 37,000  Level FlightAware
06:49PM 41.9980 -78.3640 109° East 498 573 37,000  Level FlightAware
06:50PM 41.9700 -78.2580 110° East 497 572 37,000  Level FlightAware
06:50PM 41.9470 -78.1670 109° East 493 567 37,000  Level FlightAware
06:51PM 41.9200 -78.0630 109° East 482 555 37,000  Level FlightAware
06:52PM 41.8940 -77.9640 109° East 471 542 37,000  Level FlightAware
06:52PM 41.8670 -77.8620 110° East 470 541 37,000  Level FlightAware
06:53PM 41.8430 -77.7710 109° East 470 541 37,000  Level FlightAware
06:53PM 41.8190 -77.6780 109° East 470 541 37,000  Level FlightAware
06:54PM 41.7930 -77.5790 109° East 469 540 37,000  Level FlightAware
06:54PM 41.7680 -77.4850 110° East 469 540 37,000  Level FlightAware
06:55PM 41.7420 -77.3880 110° East 469 540 37,000  Level FlightAware
06:56PM 41.7150 -77.2880 110° East 469 540 37,000  Level FlightAware
06:56PM 41.6920 -77.2020 110° East 468 539 37,000  Level FlightAware
06:57PM 41.6620 -77.0900 110° East 467 537 37,000  Level FlightAware
06:58PM 41.6390 -77.0050 110° East 464 534 37,000  Level FlightAware
06:58PM 41.6130 -76.9080 110° East 458 527 37,000  Level FlightAware
06:59PM 41.5860 -76.8100 110° East 453 521 37,000  Level FlightAware
06:59PM 41.5600 -76.7140 110° East 449 517 37,000  Level FlightAware
07:00PM 41.5300 -76.6080 111° Southeast 446 513 37,000  Level FlightAware
07:01PM 41.5050 -76.5140 110° East 444 511 37,000  Level FlightAware
07:01PM 41.4780 -76.4190 111° Southeast 443 510 37,000  Level FlightAware
07:02PM 41.4610 -76.3570 110° East 441 507 37,000  Level FlightAware
07:02PM 41.4290 -76.2420 110° East 444 511 37,000  Level FlightAware
07:03PM 41.4060 -76.1590 110° East 445 512 37,000 -120 Level FlightAware
07:04PM 41.3790 -76.0630 111° Southeast 447 514 36,900 -960 Descending FlightAware
07:04PM 41.3520 -75.9690 111° Southeast 458 527 35,900 -2,280 Descending FlightAware
07:05PM 41.3290 -75.8880 111° Southeast 468 539 34,400 -3,000 Descending FlightAware
07:05PM 41.3000 -75.7860 111° Southeast 472 543 32,500 -3,060 Descending FlightAware
07:06PM 41.2750 -75.6990 111° Southeast 469 540 30,900 -3,540 Descending FlightAware
07:06PM 41.2410 -75.5940 113° Southeast 476 548 28,300 -3,900 Descending FlightAware
07:07PM 41.2040 -75.4810 113° Southeast 482 555 25,700 -3,480 Descending FlightAware
07:08PM 41.1750 -75.3950 114° Southeast 480 552 24,100 -2,280 Descending FlightAware
07:08PM 41.1410 -75.2950 114° Southeast 476 548 23,100 -960 Descending FlightAware
07:09PM 41.1140 -75.2140 114° Southeast 475 547 23,000 -120 Descending FlightAware
07:09PM 41.0810 -75.1190 115° Southeast 481 554 23,000  Level FlightAware
07:10PM 41.0520 -75.0310 114° Southeast 478 550 23,000  Level FlightAware
07:11PM 41.0080 -74.9030 114° Southeast 457 526 23,000  Level FlightAware
07:11PM 40.9920 -74.8290 106° East 436 502 23,000 -900 Level FlightAware
07:12PM 40.9800 -74.7300 99° East 434 499 22,100 -1,440 Descending FlightAware
07:12PM 40.9710 -74.6400 98° East 440 506 21,300 -1,140 Descending FlightAware
07:13PM 40.9600 -74.5430 99° East 436 502 20,800 -900 Descending FlightAware
07:14PM 40.9520 -74.4610 97° East 422 486 20,300 -1,500 Descending FlightAware
07:14PM 40.9400 -74.3620 99° East 444 511 19,100 -1,080 Descending FlightAware
07:15PM 40.9300 -74.2660 98° East 432 497 19,000 -120 Descending FlightAware
07:15PM 40.9180 -74.2140 107° East 407 468 19,000  Level FlightAware
07:15PM 40.9030 -74.1790 120° Southeast 388 447 19,000 -180 Level FlightAware
07:16PM 40.8820 -74.1470 131° Southeast 372 428 18,900 -1,200 Descending FlightAware
07:16PM 40.9288 -74.2605 299° West 430 495 17,900 -1,920 Descending FlightAware ADS-B (KSNC)
07:17PM 40.7961 -74.0455 129° Southeast 376 433 16,800 -2,280 Descending FlightAware ADS-B
07:17PM 40.7750 -74.0284 148° Southeast 366 421 16,300 -1,680 Descending FlightAware ADS-B
07:17PM 40.7520 -74.0155 157° South 360 414 16,000 -360 Descending FlightAware ADS-B
07:18PM 40.6629 -73.9691 158° South 359 413 15,900 -780 Descending FlightAware ADS-B (KSNC)
07:19PM 40.6090 -73.9410 158° South 349 402 14,800 -2,400 Descending FlightAware
07:19PM 40.5650 -73.9190 159° South 341 392 13,300 -2,640 Descending FlightAware
07:20PM 40.5120 -73.8920 159° South 321 369 11,900 -2,040 Descending FlightAware
07:20PM 40.4940 -73.8780 149° Southeast 320 368 11,600 -1,080 Descending FlightAware
07:21PM 40.4790 -73.8560 132° Southeast 321 369 11,400 -1,500 Descending FlightAware
07:21PM 40.4560 -73.8020 119° Southeast 314 361 10,400 -1,800 Descending FlightAware
07:21PM 40.4440 -73.7710 117° Southeast 309 356 9,900 -1,800 Descending FlightAware
07:21PM 40.4410 -73.7600 110° East 314 361 9,700 -1,860 Descending FlightAware
07:22PM 40.4390 -73.7490 103° East 319 367 9,500 -1,740 Descending FlightAware
07:22PM 40.4390 -73.7370 90° East 324 373 9,300 -1,980 Descending FlightAware
07:22PM 40.4450 -73.6970 79° East 328 377 8,600 -2,100 Descending FlightAware
07:22PM 40.4570 -73.6500 71° East 324 373 7,800 -1,980 Descending FlightAware
07:23PM 40.4660 -73.6140 72° East 321 369 7,200 -2,040 Descending FlightAware
07:23PM 40.4810 -73.5800 60° Northeast 325 374 6,500 -2,100 Descending FlightAware
07:23PM 40.4880 -73.5720 41° Northeast 323 372 6,300 -1,740 Descending FlightAware
07:24PM 40.5140 -73.5460 37° Northeast 314 361 5,700 -1,260 Descending FlightAware
07:24PM 40.5390 -73.5210 37° Northeast 297 342 5,400 -1,020 Descending FlightAware
07:24PM 40.5600 -73.5000 37° Northeast 287 330 5,000 -1,380 Descending FlightAware
07:25PM 40.5810 -73.4790 37° Northeast 281 323 4,500 -1,620 Descending FlightAware
07:25PM 40.5960 -73.4640 37° Northeast 279 321 4,100 -1,680 Descending FlightAware
07:25PM 40.6050 -73.4570 31° Northeast 274 315 3,900 -1,500 Descending FlightAware
07:25PM 40.6140 -73.4530 19° North 269 310 3,700 -1,500 Descending FlightAware
07:25PM 40.6220 -73.4520 North 260 299 3,500 -1,320 Descending FlightAware
07:26PM 40.6450 -73.4580 349° North 243 280 3,100 -780 Descending FlightAware
07:26PM 40.6670 -73.4680 341° North 235 270 3,000 -180 Descending FlightAware
07:26PM 40.6860 -73.4760 342° North 226 260 3,000  Level FlightAware
07:27PM 40.7060 -73.4840 343° North 222 255 3,000  Level FlightAware
07:27PM 40.7290 -73.4940 342° North 220 253 3,000 -420 Level FlightAware
07:27PM 40.7470 -73.5060 333° Northwest 217 250 2,700 -900 Descending FlightAware
07:28PM 40.7650 -73.5190 331° Northwest 214 246 2,400 -840 Descending FlightAware
07:28PM 40.7790 -73.5290 332° Northwest 209 241 2,200 -660 Descending FlightAware
07:28PM 40.7860 -73.5400 310° West 197 227 2,100 -480 Descending FlightAware
07:28PM 40.7920 -73.5580 294° West 180 207 2,000 -180 Descending FlightAware
07:29PM 40.7970 -73.5790 287° West 166 191 2,000  Level FlightAware
07:29PM 40.7990 -73.5920 281° West 158 182 2,000  Level FlightAware
07:29PM 40.7940 -73.6120 252° West 163 188 2,000  Level FlightAware
07:30PM 40.7870 -73.6270 238° Southwest 164 189 2,000  Level FlightAware
07:30PM 40.7790 -73.6430 237° Southwest 171 197 2,000  Level FlightAware
07:30PM 40.7620 -73.6630 222° Southwest 173 199 2,000  Level FlightAware
07:31PM 40.7470 -73.6760 213° Southwest 182 209 2,000 -180 Level FlightAware
07:31PM 40.7300 -73.6890 210° Southwest 180 207 1,900 -600 Descending FlightAware
07:31PM 40.7150 -73.7000 209° Southwest 178 205 1,600 -900 Descending FlightAware
07:32PM 40.7020 -73.7110 213° Southwest 162 186 1,300 -900 Descending FlightAware
07:32PM 40.6890 -73.7200 208° Southwest 144 166 1,000 -720 Descending FlightAware
07:33PM 40.6780 -73.7300 215° Southwest 142 163 800 -660 Descending FlightAware
07:33PM 40.6640 -73.7400 208° Southwest 138 159 500 -840 Descending FlightAware
07:33PM 40.6604 -73.7429 211° Southwest 139 160 400 -1,200 Descending FlightAware ADS-B
07:34PM 40.6430 -73.7570 212° Southwest 138 159 -720 Descending FlightAware
07:34PM 40.6330 -73.7640 208° Southwest 74 85  Level FlightAware